sensor_id;sensor_type;location;lat;lon;timestamp;P1;durP1;ratioP1;P2;durP2;ratioP2
20861;SDS011;10591;52.532;13.348;2024-01-16T00:00:49;3.50;;;2.27;;
20861;SDS011;10591;52.532;13.348;2024-01-16T00:03:21;3.80;;;2.50;;
20861;SDS011;10591;52.532;13.348;2024-01-16T00:05:51;3.33;;;2.50;;
20861;SDS011;10591;52.532;13.348;2024-01-16T00:08:22;3.93;;;2.33;;
20861;SDS011;10591;52.532;13.348;2024-01-16T00:10:53;4.13;;;2.40;;
20861;SDS011;10591;52.532;13.348;2024-01-16T00:13:24;4.70;;;2.40;;
20861;SDS011;10591;52.532;13.348;2024-01-16T00:15:54;3.53;;;2.23;;
20861;SDS011;10591;52.532;13.348;2024-01-16T00:18:28;6.03;;;2.87;;
20861;SDS011;10591;52.532;13.348;2024-01-16T00:21:00;4.63;;;2.40;;
20861;SDS011;10591;52.532;13.348;2024-01-16T00:23:34;6.65;;;2.92;;
20861;SDS011;10591;52.532;13.348;2024-01-16T00:26:05;4.37;;;2.40;;
20861;SDS011;10591;52.532;13.348;2024-01-16T00:28:35;6.00;;;3.43;;
20861;SDS011;10591;52.532;13.348;2024-01-16T00:31:12;5.77;;;2.60;;
20861;SDS011;10591;52.532;13.348;2024-01-16T00:33:38;5.20;;;2.70;;
20861;SDS011;10591;52.532;13.348;2024-01-16T00:36:09;3.37;;;2.83;;
20861;SDS011;10591;52.532;13.348;2024-01-16T00:38:40;4.37;;;2.60;;
20861;SDS011;10591;52.532;13.348;2024-01-16T00:41:10;4.90;;;2.50;;
20861;SDS011;10591;52.532;13.348;2024-01-16T00:43:45;3.23;;;2.50;;
20861;SDS011;10591;52.532;13.348;2024-01-16T00:46:16;6.03;;;2.50;;
20861;SDS011;10591;52.532;13.348;2024-01-16T00:48:46;3.93;;;2.07;;
20861;SDS011;10591;52.532;13.348;2024-01-16T00:51:17;3.47;;;2.43;;
20861;SDS011;10591;52.532;13.348;2024-01-16T00:53:48;6.07;;;2.70;;
20861;SDS011;10591;52.532;13.348;2024-01-16T00:56:19;3.50;;;2.57;;
20861;SDS011;10591;52.532;13.348;2024-01-16T00:58:49;4.30;;;2.10;;
20861;SDS011;10591;52.532;13.348;2024-01-16T01:01:20;3.57;;;2.27;;
20861;SDS011;10591;52.532;13.348;2024-01-16T01:03:52;4.70;;;2.03;;
20861;SDS011;10591;52.532;13.348;2024-01-16T01:06:23;3.07;;;1.77;;
20861;SDS011;10591;52.532;13.348;2024-01-16T01:08:53;3.07;;;1.90;;
20861;SDS011;10591;52.532;13.348;2024-01-16T01:11:26;4.10;;;1.70;;
20861;SDS011;10591;52.532;13.348;2024-01-16T01:13:56;2.87;;;1.70;;
20861;SDS011;10591;52.532;13.348;2024-01-16T01:16:29;3.63;;;2.00;;
20861;SDS011;10591;52.532;13.348;2024-01-16T01:19:01;3.40;;;1.70;;
20861;SDS011;10591;52.532;13.348;2024-01-16T01:21:33;3.87;;;1.83;;
20861;SDS011;10591;52.532;13.348;2024-01-16T01:24:06;2.50;;;1.63;;
20861;SDS011;10591;52.532;13.348;2024-01-16T01:26:38;2.60;;;1.77;;
20861;SDS011;10591;52.532;13.348;2024-01-16T01:29:09;1.70;;;1.60;;
20861;SDS011;10591;52.532;13.348;2024-01-16T01:31:39;4.03;;;1.80;;
20861;SDS011;10591;52.532;13.348;2024-01-16T01:34:10;2.77;;;1.90;;
20861;SDS011;10591;52.532;13.348;2024-01-16T01:36:41;3.13;;;1.73;;
20861;SDS011;10591;52.532;13.348;2024-01-16T01:39:12;2.83;;;1.90;;
20861;SDS011;10591;52.532;13.348;2024-01-16T01:41:44;4.33;;;1.90;;
20861;SDS011;10591;52.532;13.348;2024-01-16T01:44:15;3.13;;;1.90;;
20861;SDS011;10591;52.532;13.348;2024-01-16T01:46:45;2.37;;;1.83;;
20861;SDS011;10591;52.532;13.348;2024-01-16T01:49:18;3.67;;;2.00;;
20861;SDS011;10591;52.532;13.348;2024-01-16T01:51:50;4.30;;;1.97;;
20861;SDS011;10591;52.532;13.348;2024-01-16T01:54:21;4.13;;;2.20;;
20861;SDS011;10591;52.532;13.348;2024-01-16T01:56:54;3.07;;;1.90;;
20861;SDS011;10591;52.532;13.348;2024-01-16T01:59:25;3.60;;;2.20;;
20861;SDS011;10591;52.532;13.348;2024-01-16T02:01:56;5.67;;;2.47;;
20861;SDS011;10591;52.532;13.348;2024-01-16T02:04:28;4.97;;;2.47;;
20861;SDS011;10591;52.532;13.348;2024-01-16T02:07:01;3.90;;;2.17;;
20861;SDS011;10591;52.532;13.348;2024-01-16T02:09:33;3.37;;;2.07;;
20861;SDS011;10591;52.532;13.348;2024-01-16T02:12:06;4.20;;;2.27;;
20861;SDS011;10591;52.532;13.348;2024-01-16T02:14:37;2.83;;;2.27;;
20861;SDS011;10591;52.532;13.348;2024-01-16T02:17:09;2.57;;;2.07;;
20861;SDS011;10591;52.532;13.348;2024-01-16T02:19:40;3.73;;;1.70;;
20861;SDS011;10591;52.532;13.348;2024-01-16T02:22:12;3.63;;;2.07;;
20861;SDS011;10591;52.532;13.348;2024-01-16T02:24:45;2.97;;;2.17;;
20861;SDS011;10591;52.532;13.348;2024-01-16T02:27:17;3.40;;;2.33;;
20861;SDS011;10591;52.532;13.348;2024-01-16T02:29:50;5.23;;;2.60;;
20861;SDS011;10591;52.532;13.348;2024-01-16T02:32:21;2.90;;;2.03;;
20861;SDS011;10591;52.532;13.348;2024-01-16T02:34:53;2.07;;;1.80;;
20861;SDS011;10591;52.532;13.348;2024-01-16T02:37:24;3.23;;;2.00;;
20861;SDS011;10591;52.532;13.348;2024-01-16T02:39:55;4.87;;;2.20;;
20861;SDS011;10591;52.532;13.348;2024-01-16T02:42:29;2.83;;;1.87;;
20861;SDS011;10591;52.532;13.348;2024-01-16T02:45:00;2.73;;;2.10;;
20861;SDS011;10591;52.532;13.348;2024-01-16T02:47:33;2.83;;;2.13;;
20861;SDS011;10591;52.532;13.348;2024-01-16T02:50:05;3.20;;;1.90;;
20861;SDS011;10591;52.532;13.348;2024-01-16T02:52:38;3.30;;;2.20;;
20861;SDS011;10591;52.532;13.348;2024-01-16T02:55:10;5.43;;;2.23;;
20861;SDS011;10591;52.532;13.348;2024-01-16T02:57:41;3.03;;;2.00;;
20861;SDS011;10591;52.532;13.348;2024-01-16T03:00:12;3.47;;;2.10;;
20861;SDS011;10591;52.532;13.348;2024-01-16T03:02:44;3.30;;;2.23;;
20861;SDS011;10591;52.532;13.348;2024-01-16T03:05:16;4.07;;;2.10;;
20861;SDS011;10591;52.532;13.348;2024-01-16T03:07:47;3.40;;;2.50;;
20861;SDS011;10591;52.532;13.348;2024-01-16T03:10:17;3.83;;;2.00;;
20861;SDS011;10591;52.532;13.348;2024-01-16T03:12:48;4.93;;;2.30;;
20861;SDS011;10591;52.532;13.348;2024-01-16T03:15:18;3.20;;;2.40;;
20861;SDS011;10591;52.532;13.348;2024-01-16T03:17:49;6.63;;;4.43;;
20861;SDS011;10591;52.532;13.348;2024-01-16T03:20:20;4.37;;;2.70;;
20861;SDS011;10591;52.532;13.348;2024-01-16T03:22:52;7.07;;;2.57;;
20861;SDS011;10591;52.532;13.348;2024-01-16T03:25:24;3.13;;;2.73;;
20861;SDS011;10591;52.532;13.348;2024-01-16T03:27:56;5.77;;;2.80;;
20861;SDS011;10591;52.532;13.348;2024-01-16T03:30:28;3.60;;;2.40;;
20861;SDS011;10591;52.532;13.348;2024-01-16T03:32:59;5.17;;;2.80;;
20861;SDS011;10591;52.532;13.348;2024-01-16T03:35:30;4.03;;;2.87;;
20861;SDS011;10591;52.532;13.348;2024-01-16T03:38:00;2.60;;;2.30;;
20861;SDS011;10591;52.532;13.348;2024-01-16T03:40:31;3.70;;;2.40;;
20861;SDS011;10591;52.532;13.348;2024-01-16T03:43:05;3.40;;;2.50;;
20861;SDS011;10591;52.532;13.348;2024-01-16T03:45:36;4.60;;;3.03;;
20861;SDS011;10591;52.532;13.348;2024-01-16T03:48:07;4.67;;;2.53;;
20861;SDS011;10591;52.532;13.348;2024-01-16T03:50:40;4.17;;;2.77;;
20861;SDS011;10591;52.532;13.348;2024-01-16T03:53:13;3.87;;;2.80;;
20861;SDS011;10591;52.532;13.348;2024-01-16T03:55:44;3.83;;;2.60;;
20861;SDS011;10591;52.532;13.348;2024-01-16T03:58:16;5.10;;;2.90;;
20861;SDS011;10591;52.532;13.348;2024-01-16T04:00:46;5.00;;;3.10;;
20861;SDS011;10591;52.532;13.348;2024-01-16T04:03:19;3.83;;;3.00;;
20861;SDS011;10591;52.532;13.348;2024-01-16T04:05:50;4.30;;;3.00;;
20861;SDS011;10591;52.532;13.348;2024-01-16T04:08:22;3.67;;;3.10;;
20861;SDS011;10591;52.532;13.348;2024-01-16T04:10:54;4.93;;;2.70;;
20861;SDS011;10591;52.532;13.348;2024-01-16T04:13:25;7.10;;;3.23;;
20861;SDS011;10591;52.532;13.348;2024-01-16T04:15:55;4.10;;;2.90;;
20861;SDS011;10591;52.532;13.348;2024-01-16T04:18:26;5.73;;;3.10;;
20861;SDS011;10591;52.532;13.348;2024-01-16T04:20:57;6.53;;;3.40;;
20861;SDS011;10591;52.532;13.348;2024-01-16T04:23:28;8.33;;;3.40;;
20861;SDS011;10591;52.532;13.348;2024-01-16T04:25:59;5.17;;;3.07;;
20861;SDS011;10591;52.532;13.348;2024-01-16T04:28:29;4.53;;;2.70;;
20861;SDS011;10591;52.532;13.348;2024-01-16T04:31:00;4.13;;;2.93;;
20861;SDS011;10591;52.532;13.348;2024-01-16T04:33:31;4.27;;;3.10;;
20861;SDS011;10591;52.532;13.348;2024-01-16T04:36:02;4.43;;;3.20;;
20861;SDS011;10591;52.532;13.348;2024-01-16T04:38:35;7.07;;;3.63;;
20861;SDS011;10591;52.532;13.348;2024-01-16T04:41:06;5.17;;;3.20;;
20861;SDS011;10591;52.532;13.348;2024-01-16T04:43:38;4.20;;;2.93;;
20861;SDS011;10591;52.532;13.348;2024-01-16T04:46:09;5.57;;;3.10;;
20861;SDS011;10591;52.532;13.348;2024-01-16T04:48:40;3.87;;;2.93;;
20861;SDS011;10591;52.532;13.348;2024-01-16T04:51:12;4.90;;;3.00;;
20861;SDS011;10591;52.532;13.348;2024-01-16T04:53:42;6.30;;;3.00;;
20861;SDS011;10591;52.532;13.348;2024-01-16T04:56:13;3.17;;;2.87;;
20861;SDS011;10591;52.532;13.348;2024-01-16T04:58:44;5.10;;;2.97;;
20861;SDS011;10591;52.532;13.348;2024-01-16T05:01:14;5.13;;;3.20;;
20861;SDS011;10591;52.532;13.348;2024-01-16T05:03:45;4.60;;;3.87;;
20861;SDS011;10591;52.532;13.348;2024-01-16T05:06:16;6.43;;;3.60;;
20861;SDS011;10591;52.532;13.348;2024-01-16T05:08:48;5.13;;;3.20;;
20861;SDS011;10591;52.532;13.348;2024-01-16T05:11:20;6.53;;;4.00;;
20861;SDS011;10591;52.532;13.348;2024-01-16T05:13:55;6.10;;;3.87;;
20861;SDS011;10591;52.532;13.348;2024-01-16T05:16:28;6.40;;;3.80;;
20861;SDS011;10591;52.532;13.348;2024-01-16T05:18:59;5.97;;;3.70;;
20861;SDS011;10591;52.532;13.348;2024-01-16T05:21:32;6.77;;;3.73;;
20861;SDS011;10591;52.532;13.348;2024-01-16T05:24:04;7.43;;;3.87;;
20861;SDS011;10591;52.532;13.348;2024-01-16T05:26:34;5.87;;;4.10;;
20861;SDS011;10591;52.532;13.348;2024-01-16T05:29:05;6.63;;;3.80;;
20861;SDS011;10591;52.532;13.348;2024-01-16T05:31:39;7.20;;;4.37;;
20861;SDS011;10591;52.532;13.348;2024-01-16T05:34:13;6.90;;;3.97;;
20861;SDS011;10591;52.532;13.348;2024-01-16T05:36:46;5.57;;;4.17;;
20861;SDS011;10591;52.532;13.348;2024-01-16T05:39:17;5.37;;;3.97;;
20861;SDS011;10591;52.532;13.348;2024-01-16T05:41:49;6.73;;;3.77;;
20861;SDS011;10591;52.532;13.348;2024-01-16T05:44:21;9.23;;;4.87;;
20861;SDS011;10591;52.532;13.348;2024-01-16T05:46:51;5.10;;;4.13;;
20861;SDS011;10591;52.532;13.348;2024-01-16T05:49:22;6.33;;;3.83;;
20861;SDS011;10591;52.532;13.348;2024-01-16T05:51:54;7.33;;;4.33;;
20861;SDS011;10591;52.532;13.348;2024-01-16T05:54:25;7.57;;;4.53;;
20861;SDS011;10591;52.532;13.348;2024-01-16T05:56:56;6.60;;;4.17;;
20861;SDS011;10591;52.532;13.348;2024-01-16T05:59:26;5.67;;;4.20;;
20861;SDS011;10591;52.532;13.348;2024-01-16T06:01:57;9.70;;;4.90;;
20861;SDS011;10591;52.532;13.348;2024-01-16T06:04:29;7.67;;;4.80;;
20861;SDS011;10591;52.532;13.348;2024-01-16T06:07:00;7.03;;;4.60;;
20861;SDS011;10591;52.532;13.348;2024-01-16T06:09:31;8.40;;;5.10;;
20861;SDS011;10591;52.532;13.348;2024-01-16T06:12:03;7.63;;;4.60;;
20861;SDS011;10591;52.532;13.348;2024-01-16T06:14:35;8.33;;;5.07;;
20861;SDS011;10591;52.532;13.348;2024-01-16T06:17:06;8.90;;;4.57;;
20861;SDS011;10591;52.532;13.348;2024-01-16T06:19:37;7.03;;;4.40;;
20861;SDS011;10591;52.532;13.348;2024-01-16T06:22:08;7.80;;;5.20;;
20861;SDS011;10591;52.532;13.348;2024-01-16T06:24:40;7.13;;;4.70;;
20861;SDS011;10591;52.532;13.348;2024-01-16T06:27:10;5.70;;;5.00;;
20861;SDS011;10591;52.532;13.348;2024-01-16T06:29:42;7.70;;;5.00;;
20861;SDS011;10591;52.532;13.348;2024-01-16T06:32:13;8.43;;;4.87;;
20861;SDS011;10591;52.532;13.348;2024-01-16T06:34:44;8.97;;;5.17;;
20861;SDS011;10591;52.532;13.348;2024-01-16T06:37:15;11.20;;;5.87;;
20861;SDS011;10591;52.532;13.348;2024-01-16T06:39:46;7.87;;;5.03;;
20861;SDS011;10591;52.532;13.348;2024-01-16T06:42:17;9.23;;;5.57;;
20861;SDS011;10591;52.532;13.348;2024-01-16T06:44:49;8.73;;;5.00;;
20861;SDS011;10591;52.532;13.348;2024-01-16T06:47:20;9.73;;;4.80;;
20861;SDS011;10591;52.532;13.348;2024-01-16T06:49:52;10.27;;;5.40;;
20861;SDS011;10591;52.532;13.348;2024-01-16T06:52:25;10.53;;;5.73;;
20861;SDS011;10591;52.532;13.348;2024-01-16T06:54:55;8.53;;;5.27;;
20861;SDS011;10591;52.532;13.348;2024-01-16T06:57:26;9.47;;;5.30;;
20861;SDS011;10591;52.532;13.348;2024-01-16T06:59:57;8.10;;;4.70;;
20861;SDS011;10591;52.532;13.348;2024-01-16T07:02:28;7.97;;;5.20;;
20861;SDS011;10591;52.532;13.348;2024-01-16T07:04:59;10.43;;;5.47;;
20861;SDS011;10591;52.532;13.348;2024-01-16T07:07:29;9.73;;;5.77;;
20861;SDS011;10591;52.532;13.348;2024-01-16T07:10:00;7.90;;;5.70;;
20861;SDS011;10591;52.532;13.348;2024-01-16T07:12:32;7.40;;;4.97;;
20861;SDS011;10591;52.532;13.348;2024-01-16T07:15:02;9.77;;;5.07;;
20861;SDS011;10591;52.532;13.348;2024-01-16T07:17:33;9.83;;;6.10;;
20861;SDS011;10591;52.532;13.348;2024-01-16T07:20:06;8.83;;;5.30;;
20861;SDS011;10591;52.532;13.348;2024-01-16T07:22:40;12.70;;;5.90;;
20861;SDS011;10591;52.532;13.348;2024-01-16T07:25:11;9.90;;;5.40;;
20861;SDS011;10591;52.532;13.348;2024-01-16T07:27:42;6.57;;;5.30;;
20861;SDS011;10591;52.532;13.348;2024-01-16T07:30:16;8.77;;;5.60;;
20861;SDS011;10591;52.532;13.348;2024-01-16T07:32:47;7.57;;;4.97;;
20861;SDS011;10591;52.532;13.348;2024-01-16T07:35:20;6.93;;;4.93;;
20861;SDS011;10591;52.532;13.348;2024-01-16T07:37:51;7.70;;;5.30;;
20861;SDS011;10591;52.532;13.348;2024-01-16T07:40:22;11.80;;;7.33;;
20861;SDS011;10591;52.532;13.348;2024-01-16T07:42:53;10.00;;;7.87;;
20861;SDS011;10591;52.532;13.348;2024-01-16T07:45:24;8.93;;;6.00;;
20861;SDS011;10591;52.532;13.348;2024-01-16T07:47:55;11.20;;;6.20;;
20861;SDS011;10591;52.532;13.348;2024-01-16T07:50:26;8.13;;;5.40;;
20861;SDS011;10591;52.532;13.348;2024-01-16T07:52:57;10.03;;;6.30;;
20861;SDS011;10591;52.532;13.348;2024-01-16T07:55:27;11.60;;;6.77;;
20861;SDS011;10591;52.532;13.348;2024-01-16T07:57:58;8.90;;;6.13;;
20861;SDS011;10591;52.532;13.348;2024-01-16T08:00:30;9.80;;;6.50;;
20861;SDS011;10591;52.532;13.348;2024-01-16T08:03:02;9.40;;;6.20;;
20861;SDS011;10591;52.532;13.348;2024-01-16T08:05:33;8.90;;;6.60;;
20861;SDS011;10591;52.532;13.348;2024-01-16T08:08:04;11.47;;;6.90;;
20861;SDS011;10591;52.532;13.348;2024-01-16T08:10:37;9.80;;;6.67;;
20861;SDS011;10591;52.532;13.348;2024-01-16T08:13:10;7.23;;;5.47;;
20861;SDS011;10591;52.532;13.348;2024-01-16T08:15:41;7.63;;;6.07;;
20861;SDS011;10591;52.532;13.348;2024-01-16T08:18:11;6.37;;;4.70;;
20861;SDS011;10591;52.532;13.348;2024-01-16T08:20:43;6.97;;;4.53;;
20861;SDS011;10591;52.532;13.348;2024-01-16T08:23:14;6.00;;;4.73;;
20861;SDS011;10591;52.532;13.348;2024-01-16T08:25:44;6.90;;;4.33;;
20861;SDS011;10591;52.532;13.348;2024-01-16T08:28:15;7.20;;;4.87;;
20861;SDS011;10591;52.532;13.348;2024-01-16T08:30:47;7.50;;;5.07;;
20861;SDS011;10591;52.532;13.348;2024-01-16T08:33:18;6.70;;;4.93;;
20861;SDS011;10591;52.532;13.348;2024-01-16T08:35:52;5.27;;;4.50;;
20861;SDS011;10591;52.532;13.348;2024-01-16T08:38:23;6.23;;;5.10;;
20861;SDS011;10591;52.532;13.348;2024-01-16T08:40:53;8.30;;;4.97;;
20861;SDS011;10591;52.532;13.348;2024-01-16T08:43:25;6.47;;;4.80;;
20861;SDS011;10591;52.532;13.348;2024-01-16T08:45:55;6.80;;;4.70;;
20861;SDS011;10591;52.532;13.348;2024-01-16T08:48:26;8.50;;;5.20;;
20861;SDS011;10591;52.532;13.348;2024-01-16T08:50:58;10.40;;;5.87;;
20861;SDS011;10591;52.532;13.348;2024-01-16T08:53:32;8.07;;;6.00;;
20861;SDS011;10591;52.532;13.348;2024-01-16T08:56:03;12.43;;;5.97;;
20861;SDS011;10591;52.532;13.348;2024-01-16T08:58:36;6.83;;;5.30;;
20861;SDS011;10591;52.532;13.348;2024-01-16T09:01:07;11.23;;;5.70;;
20861;SDS011;10591;52.532;13.348;2024-01-16T09:03:39;7.90;;;5.73;;
20861;SDS011;10591;52.532;13.348;2024-01-16T09:06:12;8.77;;;5.83;;
20861;SDS011;10591;52.532;13.348;2024-01-16T09:08:43;8.50;;;5.93;;
20861;SDS011;10591;52.532;13.348;2024-01-16T09:11:14;7.30;;;5.97;;
20861;SDS011;10591;52.532;13.348;2024-01-16T09:13:45;8.50;;;5.70;;
20861;SDS011;10591;52.532;13.348;2024-01-16T09:16:16;8.40;;;5.73;;
20861;SDS011;10591;52.532;13.348;2024-01-16T09:18:47;7.07;;;5.90;;
20861;SDS011;10591;52.532;13.348;2024-01-16T09:21:18;9.57;;;5.73;;
20861;SDS011;10591;52.532;13.348;2024-01-16T09:23:49;10.40;;;6.60;;
20861;SDS011;10591;52.532;13.348;2024-01-16T09:26:19;12.53;;;7.17;;
20861;SDS011;10591;52.532;13.348;2024-01-16T09:28:50;7.83;;;5.77;;
20861;SDS011;10591;52.532;13.348;2024-01-16T09:31:22;8.87;;;5.63;;
20861;SDS011;10591;52.532;13.348;2024-01-16T09:33:53;9.00;;;6.07;;
20861;SDS011;10591;52.532;13.348;2024-01-16T09:36:26;9.87;;;6.20;;
20861;SDS011;10591;52.532;13.348;2024-01-16T09:38:56;8.30;;;6.00;;
20861;SDS011;10591;52.532;13.348;2024-01-16T09:41:29;9.70;;;5.97;;
20861;SDS011;10591;52.532;13.348;2024-01-16T09:44:01;11.17;;;6.63;;
20861;SDS011;10591;52.532;13.348;2024-01-16T09:46:32;10.90;;;6.53;;
20861;SDS011;10591;52.532;13.348;2024-01-16T09:49:07;9.70;;;6.30;;
20861;SDS011;10591;52.532;13.348;2024-01-16T09:51:39;11.37;;;6.70;;
20861;SDS011;10591;52.532;13.348;2024-01-16T09:54:10;9.67;;;6.07;;
20861;SDS011;10591;52.532;13.348;2024-01-16T09:56:42;8.77;;;5.23;;
20861;SDS011;10591;52.532;13.348;2024-01-16T09:59:15;10.77;;;6.27;;
20861;SDS011;10591;52.532;13.348;2024-01-16T10:01:51;7.70;;;5.50;;
20861;SDS011;10591;52.532;13.348;2024-01-16T10:04:24;8.00;;;6.00;;
20861;SDS011;10591;52.532;13.348;2024-01-16T10:06:58;8.30;;;5.77;;
20861;SDS011;10591;52.532;13.348;2024-01-16T10:09:32;7.60;;;5.30;;
20861;SDS011;10591;52.532;13.348;2024-01-16T10:12:03;7.97;;;5.30;;
20861;SDS011;10591;52.532;13.348;2024-01-16T10:14:36;7.70;;;4.83;;
20861;SDS011;10591;52.532;13.348;2024-01-16T10:17:09;9.20;;;6.00;;
20861;SDS011;10591;52.532;13.348;2024-01-16T10:19:48;6.90;;;5.13;;
20861;SDS011;10591;52.532;13.348;2024-01-16T10:22:24;8.30;;;5.83;;
20861;SDS011;10591;52.532;13.348;2024-01-16T10:25:09;7.97;;;5.33;;
20861;SDS011;10591;52.532;13.348;2024-01-16T10:27:41;8.50;;;5.33;;
20861;SDS011;10591;52.532;13.348;2024-01-16T10:30:13;9.28;;;5.12;;
20861;SDS011;10591;52.532;13.348;2024-01-16T10:32:44;6.60;;;4.40;;
20861;SDS011;10591;52.532;13.348;2024-01-16T10:35:16;6.97;;;4.07;;
20861;SDS011;10591;52.532;13.348;2024-01-16T10:37:50;7.23;;;4.50;;
20861;SDS011;10591;52.532;13.348;2024-01-16T10:40:23;6.43;;;4.60;;
20861;SDS011;10591;52.532;13.348;2024-01-16T10:42:59;8.30;;;4.70;;
20861;SDS011;10591;52.532;13.348;2024-01-16T10:45:32;7.10;;;4.97;;
20861;SDS011;10591;52.532;13.348;2024-01-16T10:48:03;5.20;;;4.43;;
20861;SDS011;10591;52.532;13.348;2024-01-16T10:50:36;6.77;;;4.10;;
20861;SDS011;10591;52.532;13.348;2024-01-16T10:53:09;6.00;;;3.80;;
20861;SDS011;10591;52.532;13.348;2024-01-16T10:55:49;8.73;;;5.12;;
20861;SDS011;10591;52.532;13.348;2024-01-16T10:58:24;5.33;;;3.85;;
20861;SDS011;10591;52.532;13.348;2024-01-16T11:00:56;4.87;;;4.28;;
20861;SDS011;10591;52.532;13.348;2024-01-16T11:03:33;9.27;;;4.40;;
20861;SDS011;10591;52.532;13.348;2024-01-16T11:06:18;7.35;;;3.77;;
20861;SDS011;10591;52.532;13.348;2024-01-16T11:08:50;7.50;;;3.70;;
20861;SDS011;10591;52.532;13.348;2024-01-16T11:11:24;6.30;;;4.17;;
20861;SDS011;10591;52.532;13.348;2024-01-16T11:13:56;5.47;;;3.47;;
20861;SDS011;10591;52.532;13.348;2024-01-16T11:16:28;6.17;;;3.43;;
20861;SDS011;10591;52.532;13.348;2024-01-16T11:19:01;6.23;;;3.40;;
20861;SDS011;10591;52.532;13.348;2024-01-16T11:21:36;6.03;;;3.30;;
20861;SDS011;10591;52.532;13.348;2024-01-16T11:24:08;5.93;;;3.30;;
20861;SDS011;10591;52.532;13.348;2024-01-16T11:26:41;6.90;;;3.45;;
20861;SDS011;10591;52.532;13.348;2024-01-16T11:32:02;5.23;;;3.10;;
20861;SDS011;10591;52.532;13.348;2024-01-16T11:37:23;8.53;;;3.77;;
20861;SDS011;10591;52.532;13.348;2024-01-16T11:39:50;6.97;;;3.27;;
20861;SDS011;10591;52.532;13.348;2024-01-16T11:42:27;9.63;;;3.80;;
20861;SDS011;10591;52.532;13.348;2024-01-16T11:44:57;6.63;;;3.83;;
20861;SDS011;10591;52.532;13.348;2024-01-16T11:47:28;7.80;;;4.13;;
20861;SDS011;10591;52.532;13.348;2024-01-16T11:50:12;9.77;;;3.97;;
20861;SDS011;10591;52.532;13.348;2024-01-16T11:52:46;8.63;;;4.30;;
20861;SDS011;10591;52.532;13.348;2024-01-16T11:55:30;11.10;;;4.63;;
20861;SDS011;10591;52.532;13.348;2024-01-16T12:00:52;7.97;;;5.23;;
20861;SDS011;10591;52.532;13.348;2024-01-16T12:03:22;9.60;;;5.50;;
20861;SDS011;10591;52.532;13.348;2024-01-16T12:05:58;11.73;;;5.83;;
20861;SDS011;10591;52.532;13.348;2024-01-16T12:08:31;10.33;;;5.03;;
20861;SDS011;10591;52.532;13.348;2024-01-16T12:11:02;14.00;;;6.50;;
20861;SDS011;10591;52.532;13.348;2024-01-16T12:13:33;9.95;;;6.17;;
20861;SDS011;10591;52.532;13.348;2024-01-16T12:16:04;9.73;;;5.90;;
20861;SDS011;10591;52.532;13.348;2024-01-16T12:18:35;9.90;;;6.03;;
20861;SDS011;10591;52.532;13.348;2024-01-16T12:21:08;10.53;;;6.00;;
20861;SDS011;10591;52.532;13.348;2024-01-16T12:23:39;8.60;;;5.43;;
20861;SDS011;10591;52.532;13.348;2024-01-16T12:26:19;9.60;;;6.00;;
20861;SDS011;10591;52.532;13.348;2024-01-16T12:28:54;9.47;;;5.57;;
20861;SDS011;10591;52.532;13.348;2024-01-16T12:31:27;7.75;;;5.17;;
20861;SDS011;10591;52.532;13.348;2024-01-16T12:34:09;11.20;;;5.60;;
20861;SDS011;10591;52.532;13.348;2024-01-16T12:36:41;9.87;;;5.30;;
20861;SDS011;10591;52.532;13.348;2024-01-16T12:39:14;9.03;;;4.97;;
20861;SDS011;10591;52.532;13.348;2024-01-16T12:41:47;12.63;;;5.47;;
20861;SDS011;10591;52.532;13.348;2024-01-16T12:44:18;8.23;;;5.57;;
20861;SDS011;10591;52.532;13.348;2024-01-16T12:46:55;8.00;;;5.13;;
20861;SDS011;10591;52.532;13.348;2024-01-16T12:49:26;9.63;;;5.30;;
20861;SDS011;10591;52.532;13.348;2024-01-16T12:54:58;10.13;;;5.23;;
20861;SDS011;10591;52.532;13.348;2024-01-16T12:57:30;8.83;;;4.50;;
20861;SDS011;10591;52.532;13.348;2024-01-16T13:00:00;7.33;;;4.40;;
20861;SDS011;10591;52.532;13.348;2024-01-16T13:02:34;8.23;;;4.77;;
20861;SDS011;10591;52.532;13.348;2024-01-16T13:05:06;6.00;;;4.00;;
20861;SDS011;10591;52.532;13.348;2024-01-16T13:07:37;8.00;;;4.53;;
20861;SDS011;10591;52.532;13.348;2024-01-16T13:10:11;9.13;;;4.40;;
20861;SDS011;10591;52.532;13.348;2024-01-16T13:12:45;7.83;;;4.50;;
20861;SDS011;10591;52.532;13.348;2024-01-16T13:15:16;7.30;;;3.90;;
20861;SDS011;10591;52.532;13.348;2024-01-16T13:17:47;8.00;;;4.27;;
20861;SDS011;10591;52.532;13.348;2024-01-16T13:20:22;6.60;;;3.87;;
20861;SDS011;10591;52.532;13.348;2024-01-16T13:22:53;8.07;;;4.40;;
20861;SDS011;10591;52.532;13.348;2024-01-16T13:25:23;8.78;;;4.28;;
20861;SDS011;10591;52.532;13.348;2024-01-16T13:27:55;13.22;;;4.60;;
20861;SDS011;10591;52.532;13.348;2024-01-16T13:30:25;5.97;;;4.20;;
20861;SDS011;10591;52.532;13.348;2024-01-16T13:32:58;11.33;;;4.62;;
20861;SDS011;10591;52.532;13.348;2024-01-16T13:35:45;8.23;;;4.60;;
20861;SDS011;10591;52.532;13.348;2024-01-16T13:38:13;10.30;;;4.12;;
20861;SDS011;10591;52.532;13.348;2024-01-16T13:40:46;10.70;;;4.83;;
20861;SDS011;10591;52.532;13.348;2024-01-16T13:43:18;5.58;;;4.10;;
20861;SDS011;10591;52.532;13.348;2024-01-16T13:45:50;7.45;;;4.03;;
20861;SDS011;10591;52.532;13.348;2024-01-16T13:48:21;7.67;;;4.27;;
20861;SDS011;10591;52.532;13.348;2024-01-16T13:50:52;9.13;;;4.00;;
20861;SDS011;10591;52.532;13.348;2024-01-16T13:53:23;8.00;;;4.43;;
20861;SDS011;10591;52.532;13.348;2024-01-16T13:55:54;6.87;;;4.27;;
20861;SDS011;10591;52.532;13.348;2024-01-16T13:58:24;10.13;;;4.13;;
20861;SDS011;10591;52.532;13.348;2024-01-16T14:00:55;9.87;;;4.80;;
20861;SDS011;10591;52.532;13.348;2024-01-16T14:03:26;8.50;;;3.90;;
20861;SDS011;10591;52.532;13.348;2024-01-16T14:05:57;6.53;;;4.00;;
20861;SDS011;10591;52.532;13.348;2024-01-16T14:08:27;10.00;;;4.67;;
20861;SDS011;10591;52.532;13.348;2024-01-16T14:11:00;7.33;;;4.30;;
20861;SDS011;10591;52.532;13.348;2024-01-16T14:13:30;7.37;;;4.10;;
20861;SDS011;10591;52.532;13.348;2024-01-16T14:16:01;12.53;;;4.60;;
20861;SDS011;10591;52.532;13.348;2024-01-16T14:18:32;9.20;;;3.73;;
20861;SDS011;10591;52.532;13.348;2024-01-16T14:21:03;8.47;;;3.70;;
20861;SDS011;10591;52.532;13.348;2024-01-16T14:23:33;6.40;;;3.52;;
20861;SDS011;10591;52.532;13.348;2024-01-16T14:26:04;8.53;;;3.87;;
20861;SDS011;10591;52.532;13.348;2024-01-16T14:28:35;8.40;;;4.63;;
20861;SDS011;10591;52.532;13.348;2024-01-16T14:31:05;8.07;;;4.10;;
20861;SDS011;10591;52.532;13.348;2024-01-16T14:33:36;10.47;;;4.27;;
20861;SDS011;10591;52.532;13.348;2024-01-16T14:36:07;10.60;;;4.40;;
20861;SDS011;10591;52.532;13.348;2024-01-16T14:38:37;8.13;;;4.40;;
20861;SDS011;10591;52.532;13.348;2024-01-16T14:41:09;10.13;;;4.60;;
20861;SDS011;10591;52.532;13.348;2024-01-16T14:43:43;9.03;;;4.30;;
20861;SDS011;10591;52.532;13.348;2024-01-16T14:46:14;8.10;;;4.23;;
20861;SDS011;10591;52.532;13.348;2024-01-16T14:48:45;9.05;;;5.00;;
20861;SDS011;10591;52.532;13.348;2024-01-16T14:51:16;10.70;;;4.67;;
20861;SDS011;10591;52.532;13.348;2024-01-16T14:53:47;11.47;;;4.27;;
20861;SDS011;10591;52.532;13.348;2024-01-16T14:56:18;9.20;;;5.00;;
20861;SDS011;10591;52.532;13.348;2024-01-16T14:58:49;11.43;;;4.50;;
20861;SDS011;10591;52.532;13.348;2024-01-16T15:01:21;9.87;;;5.17;;
20861;SDS011;10591;52.532;13.348;2024-01-16T15:03:55;8.47;;;5.00;;
20861;SDS011;10591;52.532;13.348;2024-01-16T15:06:27;9.17;;;5.17;;
20861;SDS011;10591;52.532;13.348;2024-01-16T15:09:01;8.10;;;4.27;;
20861;SDS011;10591;52.532;13.348;2024-01-16T15:11:36;10.07;;;4.43;;